Airfield :
LOGIN :

Register | Disclaimer

   EN    FR    IT 

 










Legend :    VFR   Marginal VFR   IFR   Intensive IFR   Very Intensive IFR
Visi :
Ceiling :
>= 8 km
>= 3000ft
5 to 8 km
1000 to 3000 ft
1500m to 5 km
500 to 1000 ft
800 to 1500m
200 to 500 ft
< 800m
< 200 ft
Symbols :   Thunderstorms  Fog  Heavy snow  Heavy precipitations  Wind > 20 kt
SIGMETs :     Misc.  Thunderstorms  Icing  Turbulence  Mountain Waves  Volcanic Ashes







- Airport Elevation : 267 ft


EGDR - Culdrose Navy

CURRENT METAR :
  • 221550Z AUTO 22012KT 9999 // SCT003/// BKN027/// 11/10 Q1027

EXPIRED METARs :
  • 221450Z AUTO 22012KT 9999 // BKN004/// 12/10 Q1027
  • 221350Z 21010KT 9999 FEW007 12/10 Q1027 BLU TEMPO SCT007 GRN
  • 221322Z 21010KT 9999 FEW006 12/09 Q1027 BLU TEMPO SCT007 GRN

TAF TAF EGDR
Valid from the 22 at 09:00 until the 22 at 18:00 UTC


220821Z 2209/2218 19008KT 9999 FEW010 SCT026
TEMPO 2209/2218 FEW012 SCT024
TEMPO 2212/2218 SCT012
No reported NOTAMs for that airfield.
1 SIGMET reported for the London FIR (EGTT) :
 
Severe mountain waves
EGTT SIGMET 02 VALID 221500/221900 EGRR
EGTT LONDON FIR SEV MTW FCST WI N5500 W00027 - N5333 E00023 - N5159 W00300 - N5201 W00424 - N5313 W00355 - N5320 W00239 - N5436 W00325 - N5500 W00240 - N5500 W00027 FL030/150 STNR WKN=



MET'MAP, your aeronautical weather chart ! - Copyright ORBIFLY December 2007 - Disclaimer

ORBIFLY MET'MAP TEAM :

Programming & Development : Alexandra Zaïnal
Concept & Development : Baudouin d'Aumeries
Co-Development & Prog : Marc-Olivier Méhu
Technical & hardware support : Manuel Goepfert

Contact : metmap@orbifly.com




SOURCES & CREDITS :

   NOAA